KAL542 ENGM-RKSI
Flight info
| Callsign | KAL542 |
|---|---|
| Flight time | N/A |
| Altitude | 31000 |
| Route | DCT OKSAT L996 GETPA L727 NEGIL DCT RUMAR DCT EVGUR DCT KENIN DCT URELA DCT UDROS/N0484F330 UM859 KARDE UN644 ROLIN DCT TAGAR DCT BT DCT BARAD M747 SUBUT T916 LEYLA N161 GASBI/K0898F330 N161 DIVNO/K0896F350 N161 SARIN/K0893S1070 A368 FKG W188 DAKPA/K0900S1130 W188 LIKMI W270 DKO W69 HUR B339 LADIX W34 VAPGU W100 ORAVA W201 UNSEK A326 DONVO G597 AGAVO/N0482F390 Y644 REBIT DCT |
| Aircraft | MD11/H-SDE1E2E3FGHIJ2J3J4J5M1RWXY/LB1D1 |
Departure
| Time | N/A |
|---|---|
| Airport | Oslo-Gardermoen International Airport (ENGM) |
Arrival
| Time | 2026-04-27 09:44 |
|---|---|
| Airport | Incheon International Airport (RKSI) |
| Time | Latitude | Longitude | Altitude | Speed | Heading |
|---|---|---|---|---|---|
| 2026-04-27 09:29 | 37.37836 | 126.37235 | 31055 ft | 408 kts | 358° |
| 2026-04-27 09:29 | 37.40484 | 126.37693 | 30367 ft | 364 kts | 340° |
| 2026-04-27 09:30 | 37.42802 | 126.37080 | 29591 ft | 322 kts | 321° |
| 2026-04-27 09:30 | 37.44550 | 126.35582 | 28685 ft | 293 kts | 303° |
| 2026-04-27 09:30 | 37.45784 | 126.33602 | 27776 ft | 286 kts | 297° |
| 2026-04-27 09:30 | 37.46886 | 126.31523 | 26919 ft | 286 kts | 296° |
| 2026-04-27 09:31 | 37.47982 | 126.29432 | 26101 ft | 286 kts | 296° |
| 2026-04-27 09:31 | 37.49081 | 126.27337 | 25323 ft | 287 kts | 297° |
| 2026-04-27 09:31 | 37.50184 | 126.25231 | 24566 ft | 288 kts | 297° |
| 2026-04-27 09:31 | 37.51289 | 126.23121 | 23871 ft | 288 kts | 297° |
| 2026-04-27 09:32 | 37.52393 | 126.21008 | 23092 ft | 289 kts | 298° |
| 2026-04-27 09:32 | 37.53812 | 126.19213 | 22272 ft | 305 kts | 320° |
| 2026-04-27 09:32 | 37.55891 | 126.18360 | 21510 ft | 330 kts | 345° |
| 2026-04-27 09:32 | 37.58241 | 126.18782 | 20796 ft | 357 kts | 12° |
| 2026-04-27 09:33 | 37.60386 | 126.20515 | 20076 ft | 379 kts | 39° |
| 2026-04-27 09:33 | 37.61950 | 126.23214 | 19304 ft | 383 kts | 60° |
| 2026-04-27 09:33 | 37.62763 | 126.26408 | 18338 ft | 382 kts | 83° |
| 2026-04-27 09:33 | 37.62707 | 126.29688 | 17368 ft | 370 kts | 105° |
| 2026-04-27 09:34 | 37.62193 | 126.31746 | 16727 ft | 359 kts | 120° |
| 2026-04-27 09:34 | 37.60833 | 126.34272 | 15787 ft | 340 kts | 142° |
| 2026-04-27 09:34 | 37.58970 | 126.35913 | 14873 ft | 317 kts | 165° |
| 2026-04-27 09:34 | 37.56934 | 126.36497 | 13985 ft | 295 kts | 187° |
| 2026-04-27 09:35 | 37.54982 | 126.36014 | 12985 ft | 275 kts | 211° |
| 2026-04-27 09:35 | 37.53519 | 126.34643 | 12006 ft | 262 kts | 231° |
| 2026-04-27 09:35 | 37.52387 | 126.32837 | 11021 ft | 257 kts | 236° |
| 2026-04-27 09:35 | 37.51349 | 126.31058 | 10113 ft | 254 kts | 236° |
| 2026-04-27 09:36 | 37.50308 | 126.29279 | 9187 ft | 250 kts | 234° |
| 2026-04-27 09:36 | 37.49041 | 126.27798 | 8225 ft | 248 kts | 222° |
| 2026-04-27 09:36 | 37.48038 | 126.26197 | 7860 ft | 224 kts | 246° |
| 2026-04-27 09:36 | 37.47811 | 126.24294 | 7221 ft | 224 kts | 274° |
| 2026-04-27 09:37 | 37.48432 | 126.22476 | 6570 ft | 235 kts | 301° |
| 2026-04-27 09:37 | 37.49750 | 126.21179 | 5884 ft | 247 kts | 323° |
| 2026-04-27 09:37 | 37.51276 | 126.20169 | 5379 ft | 250 kts | 328° |
| 2026-04-27 09:37 | 37.53012 | 126.19641 | 4948 ft | 262 kts | 347° |
| 2026-04-27 09:38 | 37.54816 | 126.19600 | 4696 ft | 259 kts | 359° |
| 2026-04-27 09:38 | 37.56551 | 126.20166 | 4431 ft | 259 kts | 21° |
| 2026-04-27 09:38 | 37.57979 | 126.21500 | 4189 ft | 255 kts | 47° |
| 2026-04-27 09:38 | 37.59069 | 126.23232 | 3936 ft | 252 kts | 54° |
| 2026-04-27 09:39 | 37.60078 | 126.25028 | 3710 ft | 247 kts | 56° |
| 2026-04-27 09:39 | 37.61024 | 126.26757 | 3445 ft | 232 kts | 59° |
| 2026-04-27 09:39 | 37.61682 | 126.28534 | 3161 ft | 218 kts | 80° |
| 2026-04-27 09:39 | 37.61778 | 126.30381 | 2914 ft | 206 kts | 106° |
| 2026-04-27 09:40 | 37.61309 | 126.31984 | 2660 ft | 185 kts | 133° |
| 2026-04-27 09:40 | 37.60447 | 126.33068 | 2580 ft | 174 kts | 148° |
| 2026-04-27 09:40 | 37.59518 | 126.34055 | 2587 ft | 174 kts | 149° |
| 2026-04-27 09:40 | 37.58560 | 126.34984 | 2472 ft | 173 kts | 152° |
| 2026-04-27 09:41 | 37.57596 | 126.35854 | 2230 ft | 167 kts | 152° |
| 2026-04-27 09:41 | 37.56687 | 126.36669 | 1990 ft | 154 kts | 153° |
| 2026-04-27 09:41 | 37.55811 | 126.37428 | 1784 ft | 151 kts | 153° |
| 2026-04-27 09:41 | 37.54960 | 126.38176 | 1594 ft | 149 kts | 153° |
| 2026-04-27 09:42 | 37.54117 | 126.38937 | 1407 ft | 149 kts | 151° |
| 2026-04-27 09:42 | 37.53274 | 126.39698 | 1198 ft | 149 kts | 150° |
| 2026-04-27 09:42 | 37.52431 | 126.40447 | 1002 ft | 148 kts | 151° |
| 2026-04-27 09:42 | 37.51584 | 126.41181 | 800 ft | 148 kts | 148° |
| 2026-04-27 09:43 | 37.50758 | 126.41927 | 638 ft | 145 kts | 146° |
| 2026-04-27 09:43 | 37.49939 | 126.42660 | 423 ft | 144 kts | 146° |
| 2026-04-27 09:43 | 37.49115 | 126.43382 | 236 ft | 144 kts | 144° |
| 2026-04-27 09:43 | 37.48299 | 126.44100 | 57 ft | 143 kts | 143° |
| 2026-04-27 09:44 | 37.47583 | 126.44738 | 40 ft | 104 kts | 145° |
| 2026-04-27 09:44 | 37.47130 | 126.45144 | 39 ft | 57 kts | 144° |
| 2026-04-27 09:44 | 37.46843 | 126.45396 | 39 ft | 42 kts | 143° |
| 2026-04-27 09:44 | 37.46729 | 126.45582 | 40 ft | 22 kts | 118° |
| 2026-04-27 09:45 | 37.46672 | 126.45736 | 39 ft | 17 kts | 114° |
| 2026-04-27 09:45 | 37.46628 | 126.45858 | 40 ft | 13 kts | 116° |
| 2026-04-27 09:45 | 37.46582 | 126.45931 | 39 ft | 9 kts | 137° |
| 2026-04-27 09:45 | 37.46521 | 126.45993 | 40 ft | 15 kts | 143° |
| 2026-04-27 09:46 | 37.46415 | 126.46085 | 37 ft | 20 kts | 145° |
| 2026-04-27 09:46 | 37.46332 | 126.46173 | 38 ft | 8 kts | 113° |
| 2026-04-27 09:46 | 37.46336 | 126.46201 | 40 ft | 1 kts | 64° |
| 2026-04-27 09:46 | 37.46345 | 126.46214 | 40 ft | 5 kts | 51° |
| 2026-04-27 09:47 | 37.46397 | 126.46286 | 40 ft | 15 kts | 45° |
| 2026-04-27 09:47 | 37.46445 | 126.46365 | 40 ft | 8 kts | 55° |
| 2026-04-27 09:47 | 37.46476 | 126.46421 | 40 ft | 7 kts | 54° |
| 2026-04-27 09:47 | 37.46504 | 126.46471 | 39 ft | 7 kts | 54° |
| 2026-04-27 09:48 | 37.46532 | 126.46521 | 40 ft | 8 kts | 54° |
| 2026-04-27 09:48 | 37.46585 | 126.46613 | 40 ft | 18 kts | 54° |
| 2026-04-27 09:48 | 37.46667 | 126.46759 | 40 ft | 20 kts | 54° |
| 2026-04-27 09:48 | 37.46719 | 126.46859 | 39 ft | 5 kts | 77° |
| 2026-04-27 09:49 | 37.46714 | 126.46886 | 40 ft | 2 kts | 114° |
| 2026-04-27 09:49 | 37.46697 | 126.46912 | 40 ft | 7 kts | 136° |
| 2026-04-27 09:49 | 37.46674 | 126.46931 | 40 ft | 0 kts | 146° |